sensor_id;sensor_type;location;lat;lon;timestamp;temperature;humidity
35497;DHT22;21609;49.298;6.844;2022-10-31T00:00:59;21.20;61.40
35497;DHT22;21609;49.298;6.844;2022-10-31T00:03:25;21.20;61.30
35497;DHT22;21609;49.298;6.844;2022-10-31T00:05:52;21.20;61.40
35497;DHT22;21609;49.298;6.844;2022-10-31T00:08:18;21.20;61.30
35497;DHT22;21609;49.298;6.844;2022-10-31T00:10:44;21.20;61.30
35497;DHT22;21609;49.298;6.844;2022-10-31T00:13:11;21.20;61.30
35497;DHT22;21609;49.298;6.844;2022-10-31T00:15:38;21.20;61.30
35497;DHT22;21609;49.298;6.844;2022-10-31T00:18:05;21.10;61.30
35497;DHT22;21609;49.298;6.844;2022-10-31T00:20:31;21.10;61.30
35497;DHT22;21609;49.298;6.844;2022-10-31T00:23:01;21.10;61.30
35497;DHT22;21609;49.298;6.844;2022-10-31T00:25:28;21.10;61.30
35497;DHT22;21609;49.298;6.844;2022-10-31T00:27:54;21.10;61.30
35497;DHT22;21609;49.298;6.844;2022-10-31T00:30:19;21.10;61.30
35497;DHT22;21609;49.298;6.844;2022-10-31T00:32:45;21.10;61.30
35497;DHT22;21609;49.298;6.844;2022-10-31T00:35:10;21.10;61.30
35497;DHT22;21609;49.298;6.844;2022-10-31T00:37:36;21.10;61.30
35497;DHT22;21609;49.298;6.844;2022-10-31T00:40:02;21.10;61.40
35497;DHT22;21609;49.298;6.844;2022-10-31T00:42:27;21.10;61.40
35497;DHT22;21609;49.298;6.844;2022-10-31T00:44:53;21.10;61.40
35497;DHT22;21609;49.298;6.844;2022-10-31T00:47:18;21.00;61.30
35497;DHT22;21609;49.298;6.844;2022-10-31T00:49:44;21.10;61.30
35497;DHT22;21609;49.298;6.844;2022-10-31T00:52:10;21.00;61.30
35497;DHT22;21609;49.298;6.844;2022-10-31T00:54:35;21.00;61.30
35497;DHT22;21609;49.298;6.844;2022-10-31T00:57:01;21.00;61.30
35497;DHT22;21609;49.298;6.844;2022-10-31T00:59:26;21.00;61.30
35497;DHT22;21609;49.298;6.844;2022-10-31T01:01:52;21.00;61.30
35497;DHT22;21609;49.298;6.844;2022-10-31T01:04:20;21.00;61.30
35497;DHT22;21609;49.298;6.844;2022-10-31T01:06:46;21.00;61.30
35497;DHT22;21609;49.298;6.844;2022-10-31T01:09:12;21.00;61.30
35497;DHT22;21609;49.298;6.844;2022-10-31T01:11:37;21.00;61.30
35497;DHT22;21609;49.298;6.844;2022-10-31T01:14:03;21.00;61.30
35497;DHT22;21609;49.298;6.844;2022-10-31T01:16:29;21.00;61.30
35497;DHT22;21609;49.298;6.844;2022-10-31T01:18:57;21.00;61.30
35497;DHT22;21609;49.298;6.844;2022-10-31T01:21:25;21.00;61.30
35497;DHT22;21609;49.298;6.844;2022-10-31T01:23:53;21.00;61.30
35497;DHT22;21609;49.298;6.844;2022-10-31T01:26:22;21.00;61.40
35497;DHT22;21609;49.298;6.844;2022-10-31T01:28:55;21.00;61.30
35497;DHT22;21609;49.298;6.844;2022-10-31T01:31:23;21.00;61.40
35497;DHT22;21609;49.298;6.844;2022-10-31T01:33:49;21.00;61.40
35497;DHT22;21609;49.298;6.844;2022-10-31T01:38:48;21.00;61.40
35497;DHT22;21609;49.298;6.844;2022-10-31T01:41:18;21.00;61.40
35497;DHT22;21609;49.298;6.844;2022-10-31T01:46:34;20.90;61.30
35497;DHT22;21609;49.298;6.844;2022-10-31T01:49:04;20.90;61.40
35497;DHT22;21609;49.298;6.844;2022-10-31T01:51:33;20.90;61.40
35497;DHT22;21609;49.298;6.844;2022-10-31T01:54:04;20.90;61.40
35497;DHT22;21609;49.298;6.844;2022-10-31T01:56:30;20.90;61.40
35497;DHT22;21609;49.298;6.844;2022-10-31T01:58:58;20.90;61.40
35497;DHT22;21609;49.298;6.844;2022-10-31T02:01:24;20.90;61.40
35497;DHT22;21609;49.298;6.844;2022-10-31T02:03:50;20.90;61.40
35497;DHT22;21609;49.298;6.844;2022-10-31T02:06:33;20.90;61.50
35497;DHT22;21609;49.298;6.844;2022-10-31T02:09:03;20.90;61.40
35497;DHT22;21609;49.298;6.844;2022-10-31T02:11:29;20.90;61.40
35497;DHT22;21609;49.298;6.844;2022-10-31T02:13:56;20.90;61.40
35497;DHT22;21609;49.298;6.844;2022-10-31T02:16:21;20.80;61.30
35497;DHT22;21609;49.298;6.844;2022-10-31T02:18:47;20.80;61.40
35497;DHT22;21609;49.298;6.844;2022-10-31T02:21:35;20.90;61.40
35497;DHT22;21609;49.298;6.844;2022-10-31T02:27:17;20.80;61.40
35497;DHT22;21609;49.298;6.844;2022-10-31T02:30:07;20.80;61.40
35497;DHT22;21609;49.298;6.844;2022-10-31T02:32:43;20.80;61.40
35497;DHT22;21609;49.298;6.844;2022-10-31T02:38:18;20.80;61.50
35497;DHT22;21609;49.298;6.844;2022-10-31T02:41:01;20.80;61.50
35497;DHT22;21609;49.298;6.844;2022-10-31T02:46:16;20.80;61.50
35497;DHT22;21609;49.298;6.844;2022-10-31T02:48:46;20.80;61.50
35497;DHT22;21609;49.298;6.844;2022-10-31T02:51:13;20.80;61.40
35497;DHT22;21609;49.298;6.844;2022-10-31T02:53:39;20.80;61.40
35497;DHT22;21609;49.298;6.844;2022-10-31T02:56:16;20.80;61.40
35497;DHT22;21609;49.298;6.844;2022-10-31T03:01:32;20.70;61.40
35497;DHT22;21609;49.298;6.844;2022-10-31T03:04:39;20.80;61.40
35497;DHT22;21609;49.298;6.844;2022-10-31T03:12:29;20.70;61.50
35497;DHT22;21609;49.298;6.844;2022-10-31T03:15:02;20.70;61.40
35497;DHT22;21609;49.298;6.844;2022-10-31T03:17:37;20.70;61.50
35497;DHT22;21609;49.298;6.844;2022-10-31T03:20:04;20.70;61.50
35497;DHT22;21609;49.298;6.844;2022-10-31T03:22:32;20.70;61.40
35497;DHT22;21609;49.298;6.844;2022-10-31T03:25:01;20.70;61.50
35497;DHT22;21609;49.298;6.844;2022-10-31T03:27:29;20.70;61.40
35497;DHT22;21609;49.298;6.844;2022-10-31T03:29:59;20.70;61.40
35497;DHT22;21609;49.298;6.844;2022-10-31T03:32:34;20.70;61.40
35497;DHT22;21609;49.298;6.844;2022-10-31T03:35:02;20.70;61.40
35497;DHT22;21609;49.298;6.844;2022-10-31T03:37:32;20.70;61.40
35497;DHT22;21609;49.298;6.844;2022-10-31T03:39:58;20.70;61.40
35497;DHT22;21609;49.298;6.844;2022-10-31T03:42:27;20.60;61.30
35497;DHT22;21609;49.298;6.844;2022-10-31T03:45:01;20.70;61.40
35497;DHT22;21609;49.298;6.844;2022-10-31T03:47:28;20.70;61.50
35497;DHT22;21609;49.298;6.844;2022-10-31T03:49:54;20.60;61.30
35497;DHT22;21609;49.298;6.844;2022-10-31T03:52:28;20.60;61.30
35497;DHT22;21609;49.298;6.844;2022-10-31T03:55:09;20.60;61.30
35497;DHT22;21609;49.298;6.844;2022-10-31T03:57:42;20.60;61.40
35497;DHT22;21609;49.298;6.844;2022-10-31T04:00:12;20.60;61.30
35497;DHT22;21609;49.298;6.844;2022-10-31T04:02:42;20.60;61.40
35497;DHT22;21609;49.298;6.844;2022-10-31T04:05:10;20.60;61.30
35497;DHT22;21609;49.298;6.844;2022-10-31T04:07:41;20.60;61.30
35497;DHT22;21609;49.298;6.844;2022-10-31T04:10:10;20.60;61.30
35497;DHT22;21609;49.298;6.844;2022-10-31T04:12:38;20.60;61.30
35497;DHT22;21609;49.298;6.844;2022-10-31T04:15:06;20.60;61.30
35497;DHT22;21609;49.298;6.844;2022-10-31T04:17:36;20.60;61.40
35497;DHT22;21609;49.298;6.844;2022-10-31T04:20:03;20.60;61.40
35497;DHT22;21609;49.298;6.844;2022-10-31T04:22:29;20.60;61.30
35497;DHT22;21609;49.298;6.844;2022-10-31T04:24:55;20.60;61.30
35497;DHT22;21609;49.298;6.844;2022-10-31T04:27:20;20.60;61.40
35497;DHT22;21609;49.298;6.844;2022-10-31T04:29:46;20.60;61.40
35497;DHT22;21609;49.298;6.844;2022-10-31T04:32:11;20.60;61.40
35497;DHT22;21609;49.298;6.844;2022-10-31T04:34:37;20.60;61.40
35497;DHT22;21609;49.298;6.844;2022-10-31T04:37:02;20.50;61.40
35497;DHT22;21609;49.298;6.844;2022-10-31T04:39:28;20.60;61.40
35497;DHT22;21609;49.298;6.844;2022-10-31T04:41:54;20.60;61.40
35497;DHT22;21609;49.298;6.844;2022-10-31T04:44:19;20.50;61.60
35497;DHT22;21609;49.298;6.844;2022-10-31T04:46:45;20.50;61.40
35497;DHT22;21609;49.298;6.844;2022-10-31T04:49:10;20.50;61.40
35497;DHT22;21609;49.298;6.844;2022-10-31T04:51:36;20.50;61.40
35497;DHT22;21609;49.298;6.844;2022-10-31T04:54:02;20.50;61.30
35497;DHT22;21609;49.298;6.844;2022-10-31T04:56:27;20.50;61.40
35497;DHT22;21609;49.298;6.844;2022-10-31T04:58:53;20.50;61.40
35497;DHT22;21609;49.298;6.844;2022-10-31T05:01:18;20.50;61.40
35497;DHT22;21609;49.298;6.844;2022-10-31T05:03:44;20.50;61.40
35497;DHT22;21609;49.298;6.844;2022-10-31T05:06:09;20.50;61.40
35497;DHT22;21609;49.298;6.844;2022-10-31T05:08:35;20.50;61.50
35497;DHT22;21609;49.298;6.844;2022-10-31T05:11:02;20.50;61.50
35497;DHT22;21609;49.298;6.844;2022-10-31T05:13:28;20.50;61.40
35497;DHT22;21609;49.298;6.844;2022-10-31T05:15:54;20.50;61.40
35497;DHT22;21609;49.298;6.844;2022-10-31T05:18:19;20.50;61.40
35497;DHT22;21609;49.298;6.844;2022-10-31T05:20:45;20.50;61.40
35497;DHT22;21609;49.298;6.844;2022-10-31T05:23:10;20.40;61.40
35497;DHT22;21609;49.298;6.844;2022-10-31T05:25:36;20.40;61.50
35497;DHT22;21609;49.298;6.844;2022-10-31T05:28:01;20.40;61.40
35497;DHT22;21609;49.298;6.844;2022-10-31T05:30:30;20.40;61.40
35497;DHT22;21609;49.298;6.844;2022-10-31T05:32:56;20.40;61.40
35497;DHT22;21609;49.298;6.844;2022-10-31T05:35:28;20.40;61.40
35497;DHT22;21609;49.298;6.844;2022-10-31T05:37:54;20.40;61.40
35497;DHT22;21609;49.298;6.844;2022-10-31T05:40:22;20.40;61.40
35497;DHT22;21609;49.298;6.844;2022-10-31T05:42:50;20.40;61.40
35497;DHT22;21609;49.298;6.844;2022-10-31T05:45:17;20.40;61.40
35497;DHT22;21609;49.298;6.844;2022-10-31T05:48:00;20.40;61.40
35497;DHT22;21609;49.298;6.844;2022-10-31T05:50:27;20.40;61.40
35497;DHT22;21609;49.298;6.844;2022-10-31T05:52:58;20.40;61.50
35497;DHT22;21609;49.298;6.844;2022-10-31T05:55:24;20.40;61.50
35497;DHT22;21609;49.298;6.844;2022-10-31T05:57:51;20.40;61.50
35497;DHT22;21609;49.298;6.844;2022-10-31T06:00:18;20.40;61.50
35497;DHT22;21609;49.298;6.844;2022-10-31T06:02:43;20.40;61.80
35497;DHT22;21609;49.298;6.844;2022-10-31T06:05:09;20.40;61.80
35497;DHT22;21609;49.298;6.844;2022-10-31T06:07:35;20.40;61.80
35497;DHT22;21609;49.298;6.844;2022-10-31T06:10:02;20.40;61.70
35497;DHT22;21609;49.298;6.844;2022-10-31T06:12:28;20.40;61.60
35497;DHT22;21609;49.298;6.844;2022-10-31T06:14:54;20.40;61.70
35497;DHT22;21609;49.298;6.844;2022-10-31T06:17:19;20.30;61.70
35497;DHT22;21609;49.298;6.844;2022-10-31T06:19:45;20.40;61.60
35497;DHT22;21609;49.298;6.844;2022-10-31T06:22:10;20.30;62.50
35497;DHT22;21609;49.298;6.844;2022-10-31T06:24:37;20.30;61.70
35497;DHT22;21609;49.298;6.844;2022-10-31T06:27:03;20.40;61.80
35497;DHT22;21609;49.298;6.844;2022-10-31T06:29:29;20.40;61.80
35497;DHT22;21609;49.298;6.844;2022-10-31T06:31:55;20.30;61.60
35497;DHT22;21609;49.298;6.844;2022-10-31T06:34:20;20.30;61.60
35497;DHT22;21609;49.298;6.844;2022-10-31T06:36:47;20.30;61.60
35497;DHT22;21609;49.298;6.844;2022-10-31T06:39:15;20.30;61.80
35497;DHT22;21609;49.298;6.844;2022-10-31T06:41:59;20.30;61.80
35497;DHT22;21609;49.298;6.844;2022-10-31T06:44:25;20.30;62.00
35497;DHT22;21609;49.298;6.844;2022-10-31T06:46:50;20.30;61.80
35497;DHT22;21609;49.298;6.844;2022-10-31T06:49:16;20.30;61.80
35497;DHT22;21609;49.298;6.844;2022-10-31T06:51:42;20.30;61.80
35497;DHT22;21609;49.298;6.844;2022-10-31T06:54:07;20.30;61.80
35497;DHT22;21609;49.298;6.844;2022-10-31T06:56:33;20.30;61.80
35497;DHT22;21609;49.298;6.844;2022-10-31T06:58:59;20.30;61.80
35497;DHT22;21609;49.298;6.844;2022-10-31T07:01:24;20.30;61.80
35497;DHT22;21609;49.298;6.844;2022-10-31T07:03:50;20.30;61.80
35497;DHT22;21609;49.298;6.844;2022-10-31T07:06:16;20.30;61.70
35497;DHT22;21609;49.298;6.844;2022-10-31T07:08:41;20.30;61.70
35497;DHT22;21609;49.298;6.844;2022-10-31T07:11:07;20.30;61.80
35497;DHT22;21609;49.298;6.844;2022-10-31T07:13:32;20.40;61.80
35497;DHT22;21609;49.298;6.844;2022-10-31T07:16:04;20.30;61.80
35497;DHT22;21609;49.298;6.844;2022-10-31T07:18:32;20.30;61.90
35497;DHT22;21609;49.298;6.844;2022-10-31T07:20:58;20.30;61.80
35497;DHT22;21609;49.298;6.844;2022-10-31T07:23:24;20.30;61.80
35497;DHT22;21609;49.298;6.844;2022-10-31T07:25:55;20.30;61.80
35497;DHT22;21609;49.298;6.844;2022-10-31T07:28:21;20.30;61.80
35497;DHT22;21609;49.298;6.844;2022-10-31T07:30:53;20.30;61.80
35497;DHT22;21609;49.298;6.844;2022-10-31T07:33:19;20.30;61.90
35497;DHT22;21609;49.298;6.844;2022-10-31T07:35:45;20.30;61.80
35497;DHT22;21609;49.298;6.844;2022-10-31T07:38:12;20.30;61.80
35497;DHT22;21609;49.298;6.844;2022-10-31T07:40:38;20.30;61.80
35497;DHT22;21609;49.298;6.844;2022-10-31T07:43:04;20.30;61.80
35497;DHT22;21609;49.298;6.844;2022-10-31T07:45:30;20.30;61.90
35497;DHT22;21609;49.298;6.844;2022-10-31T07:47:55;20.20;61.80
35497;DHT22;21609;49.298;6.844;2022-10-31T07:50:27;20.20;61.80
35497;DHT22;21609;49.298;6.844;2022-10-31T07:55:25;20.30;61.80
35497;DHT22;21609;49.298;6.844;2022-10-31T07:57:59;20.20;61.70
35497;DHT22;21609;49.298;6.844;2022-10-31T08:00:24;20.20;61.80
35497;DHT22;21609;49.298;6.844;2022-10-31T08:03:01;20.20;61.70
35497;DHT22;21609;49.298;6.844;2022-10-31T08:05:27;20.20;61.90
35497;DHT22;21609;49.298;6.844;2022-10-31T08:07:53;20.20;61.70
35497;DHT22;21609;49.298;6.844;2022-10-31T08:10:19;20.20;61.70
35497;DHT22;21609;49.298;6.844;2022-10-31T08:12:46;20.20;61.80
35497;DHT22;21609;49.298;6.844;2022-10-31T08:15:12;20.20;61.80
35497;DHT22;21609;49.298;6.844;2022-10-31T08:17:39;20.20;61.90
35497;DHT22;21609;49.298;6.844;2022-10-31T08:20:05;20.20;61.80
35497;DHT22;21609;49.298;6.844;2022-10-31T08:22:31;20.20;61.80
35497;DHT22;21609;49.298;6.844;2022-10-31T08:24:57;20.20;61.70
35497;DHT22;21609;49.298;6.844;2022-10-31T08:27:22;20.20;61.70
35497;DHT22;21609;49.298;6.844;2022-10-31T08:29:48;20.20;61.70
35497;DHT22;21609;49.298;6.844;2022-10-31T08:32:13;20.20;61.70
35497;DHT22;21609;49.298;6.844;2022-10-31T08:34:39;20.20;61.70
35497;DHT22;21609;49.298;6.844;2022-10-31T08:37:05;20.20;61.70
35497;DHT22;21609;49.298;6.844;2022-10-31T08:39:30;20.20;61.70
35497;DHT22;21609;49.298;6.844;2022-10-31T08:41:56;20.20;61.70
35497;DHT22;21609;49.298;6.844;2022-10-31T08:44:21;20.20;61.80
35497;DHT22;21609;49.298;6.844;2022-10-31T08:46:47;20.20;61.90
35497;DHT22;21609;49.298;6.844;2022-10-31T08:49:12;20.20;61.80
35497;DHT22;21609;49.298;6.844;2022-10-31T08:51:38;20.20;61.70
35497;DHT22;21609;49.298;6.844;2022-10-31T08:54:04;20.20;61.60
35497;DHT22;21609;49.298;6.844;2022-10-31T08:56:29;20.20;61.70
35497;DHT22;21609;49.298;6.844;2022-10-31T08:58:55;20.20;61.70
35497;DHT22;21609;49.298;6.844;2022-10-31T09:01:20;20.30;61.70
35497;DHT22;21609;49.298;6.844;2022-10-31T09:03:46;20.30;61.40
35497;DHT22;21609;49.298;6.844;2022-10-31T09:06:12;20.30;61.40
35497;DHT22;21609;49.298;6.844;2022-10-31T09:08:37;20.30;61.50
35497;DHT22;21609;49.298;6.844;2022-10-31T09:11:03;20.20;61.40
35497;DHT22;21609;49.298;6.844;2022-10-31T09:13:29;20.30;61.30
35497;DHT22;21609;49.298;6.844;2022-10-31T09:15:56;20.30;61.30
35497;DHT22;21609;49.298;6.844;2022-10-31T09:18:22;20.30;61.30
35497;DHT22;21609;49.298;6.844;2022-10-31T09:20:49;20.30;61.20
35497;DHT22;21609;49.298;6.844;2022-10-31T09:23:20;20.30;61.20
35497;DHT22;21609;49.298;6.844;2022-10-31T09:25:47;20.30;61.20
35497;DHT22;21609;49.298;6.844;2022-10-31T09:28:14;20.30;61.20
35497;DHT22;21609;49.298;6.844;2022-10-31T09:30:40;20.40;61.00
35497;DHT22;21609;49.298;6.844;2022-10-31T09:33:10;20.30;61.90
35497;DHT22;21609;49.298;6.844;2022-10-31T09:35:36;20.30;61.10
35497;DHT22;21609;49.298;6.844;2022-10-31T09:38:25;20.30;61.10
35497;DHT22;21609;49.298;6.844;2022-10-31T09:41:25;20.30;61.10
35497;DHT22;21609;49.298;6.844;2022-10-31T09:43:56;20.40;61.30
35497;DHT22;21609;49.298;6.844;2022-10-31T09:51:56;20.50;61.40
35497;DHT22;21609;49.298;6.844;2022-10-31T09:57:00;20.80;60.80
35497;DHT22;21609;49.298;6.844;2022-10-31T09:59:35;20.90;60.20
35497;DHT22;21609;49.298;6.844;2022-10-31T10:02:13;20.70;60.40
35497;DHT22;21609;49.298;6.844;2022-10-31T10:07:49;21.00;59.90
35497;DHT22;21609;49.298;6.844;2022-10-31T10:12:57;21.00;60.50
35497;DHT22;21609;49.298;6.844;2022-10-31T10:21:00;20.90;60.70
35497;DHT22;21609;49.298;6.844;2022-10-31T10:26:21;21.00;60.60
35497;DHT22;21609;49.298;6.844;2022-10-31T10:28:52;21.00;60.50
35497;DHT22;21609;49.298;6.844;2022-10-31T10:31:30;20.90;60.50
35497;DHT22;21609;49.298;6.844;2022-10-31T10:37:04;20.90;60.50
35497;DHT22;21609;49.298;6.844;2022-10-31T10:39:41;20.90;60.60
35497;DHT22;21609;49.298;6.844;2022-10-31T10:42:11;20.90;60.60
35497;DHT22;21609;49.298;6.844;2022-10-31T10:44:57;20.90;60.50
35497;DHT22;21609;49.298;6.844;2022-10-31T10:47:45;20.90;60.50
35497;DHT22;21609;49.298;6.844;2022-10-31T10:50:19;20.90;60.60
35497;DHT22;21609;49.298;6.844;2022-10-31T10:58:17;20.90;60.80
35497;DHT22;21609;49.298;6.844;2022-10-31T11:00:47;20.90;60.70
35497;DHT22;21609;49.298;6.844;2022-10-31T11:03:14;20.90;60.50
35497;DHT22;21609;49.298;6.844;2022-10-31T11:05:53;20.90;60.50
35497;DHT22;21609;49.298;6.844;2022-10-31T11:08:30;20.90;60.50
35497;DHT22;21609;49.298;6.844;2022-10-31T11:13:28;20.90;60.70
35497;DHT22;21609;49.298;6.844;2022-10-31T11:16:04;21.00;60.70
35497;DHT22;21609;49.298;6.844;2022-10-31T11:18:34;20.90;60.70
35497;DHT22;21609;49.298;6.844;2022-10-31T11:21:03;20.90;60.60
35497;DHT22;21609;49.298;6.844;2022-10-31T11:23:30;21.00;60.70
35497;DHT22;21609;49.298;6.844;2022-10-31T11:26:04;21.00;60.80
35497;DHT22;21609;49.298;6.844;2022-10-31T11:28:31;21.00;60.80
35497;DHT22;21609;49.298;6.844;2022-10-31T11:31:06;20.90;60.70
35497;DHT22;21609;49.298;6.844;2022-10-31T11:33:35;21.00;60.60
35497;DHT22;21609;49.298;6.844;2022-10-31T11:36:13;20.90;60.50
35497;DHT22;21609;49.298;6.844;2022-10-31T11:38:41;21.00;60.60
35497;DHT22;21609;49.298;6.844;2022-10-31T11:41:19;21.00;60.60
35497;DHT22;21609;49.298;6.844;2022-10-31T11:43:59;20.90;60.50
35497;DHT22;21609;49.298;6.844;2022-10-31T11:46:44;20.90;60.40
35497;DHT22;21609;49.298;6.844;2022-10-31T11:52:46;20.90;60.50
35497;DHT22;21609;49.298;6.844;2022-10-31T11:57:51;20.90;60.50
35497;DHT22;21609;49.298;6.844;2022-10-31T12:00:27;20.90;60.50
35497;DHT22;21609;49.298;6.844;2022-10-31T12:03:20;20.90;60.50
35497;DHT22;21609;49.298;6.844;2022-10-31T12:08:19;20.90;60.60
35497;DHT22;21609;49.298;6.844;2022-10-31T12:11:11;20.90;60.50
35497;DHT22;21609;49.298;6.844;2022-10-31T12:16:36;20.90;60.50
35497;DHT22;21609;49.298;6.844;2022-10-31T12:19:10;21.00;60.50
35497;DHT22;21609;49.298;6.844;2022-10-31T12:22:12;21.00;60.70
35497;DHT22;21609;49.298;6.844;2022-10-31T12:24:48;21.00;61.00
35497;DHT22;21609;49.298;6.844;2022-10-31T12:30:20;21.20;60.80
35497;DHT22;21609;49.298;6.844;2022-10-31T12:32:56;21.30;60.80
35497;DHT22;21609;49.298;6.844;2022-10-31T12:38:12;21.40;60.80
35497;DHT22;21609;49.298;6.844;2022-10-31T12:43:47;21.40;60.80
35497;DHT22;21609;49.298;6.844;2022-10-31T12:49:46;21.40;60.60
35497;DHT22;21609;49.298;6.844;2022-10-31T12:57:40;21.40;60.60
35497;DHT22;21609;49.298;6.844;2022-10-31T13:00:18;21.40;60.80
35497;DHT22;21609;49.298;6.844;2022-10-31T13:05:30;21.30;60.90
35497;DHT22;21609;49.298;6.844;2022-10-31T13:08:10;21.30;60.80
35497;DHT22;21609;49.298;6.844;2022-10-31T13:11:02;21.30;60.60
35497;DHT22;21609;49.298;6.844;2022-10-31T13:13:32;21.30;60.60
35497;DHT22;21609;49.298;6.844;2022-10-31T13:16:04;21.30;60.80
35497;DHT22;21609;49.298;6.844;2022-10-31T13:18:44;21.40;61.00
35497;DHT22;21609;49.298;6.844;2022-10-31T13:21:23;21.30;61.00
35497;DHT22;21609;49.298;6.844;2022-10-31T13:23:51;21.30;61.00
35497;DHT22;21609;49.298;6.844;2022-10-31T13:31:45;21.30;61.10
35497;DHT22;21609;49.298;6.844;2022-10-31T13:34:34;21.20;61.10
35497;DHT22;21609;49.298;6.844;2022-10-31T13:37:27;21.30;61.10
35497;DHT22;21609;49.298;6.844;2022-10-31T13:45:19;21.30;61.00
35497;DHT22;21609;49.298;6.844;2022-10-31T13:50:41;21.30;60.90
35497;DHT22;21609;49.298;6.844;2022-10-31T13:53:20;21.40;60.50
35497;DHT22;21609;49.298;6.844;2022-10-31T13:55:49;21.40;61.20
35497;DHT22;21609;49.298;6.844;2022-10-31T13:58:24;21.40;60.60
35497;DHT22;21609;49.298;6.844;2022-10-31T14:01:21;21.40;60.60
35497;DHT22;21609;49.298;6.844;2022-10-31T14:03:59;21.40;60.60
35497;DHT22;21609;49.298;6.844;2022-10-31T14:06:38;21.30;60.60
35497;DHT22;21609;49.298;6.844;2022-10-31T14:09:05;21.30;60.60
35497;DHT22;21609;49.298;6.844;2022-10-31T14:11:40;21.40;60.70
35497;DHT22;21609;49.298;6.844;2022-10-31T14:14:11;21.40;60.70
35497;DHT22;21609;49.298;6.844;2022-10-31T14:16:38;21.40;60.70
35497;DHT22;21609;49.298;6.844;2022-10-31T14:19:16;21.40;60.70
35497;DHT22;21609;49.298;6.844;2022-10-31T14:21:44;21.40;60.60
35497;DHT22;21609;49.298;6.844;2022-10-31T14:27:00;21.40;60.60
35497;DHT22;21609;49.298;6.844;2022-10-31T14:29:29;21.40;60.50
35497;DHT22;21609;49.298;6.844;2022-10-31T14:34:38;21.40;60.40
35497;DHT22;21609;49.298;6.844;2022-10-31T14:48:24;21.40;60.20
35497;DHT22;21609;49.298;6.844;2022-10-31T14:51:03;21.40;60.30
35497;DHT22;21609;49.298;6.844;2022-10-31T14:53:45;21.40;60.30
35497;DHT22;21609;49.298;6.844;2022-10-31T14:56:11;21.40;60.20
35497;DHT22;21609;49.298;6.844;2022-10-31T14:58:41;21.40;60.40
35497;DHT22;21609;49.298;6.844;2022-10-31T15:03:49;21.40;60.30
35497;DHT22;21609;49.298;6.844;2022-10-31T15:06:17;21.40;60.40
35497;DHT22;21609;49.298;6.844;2022-10-31T15:08:47;21.40;60.40
35497;DHT22;21609;49.298;6.844;2022-10-31T15:11:25;21.30;60.40
35497;DHT22;21609;49.298;6.844;2022-10-31T15:13:58;21.30;60.30
35497;DHT22;21609;49.298;6.844;2022-10-31T15:16:31;21.30;60.30
35497;DHT22;21609;49.298;6.844;2022-10-31T15:19:05;21.30;60.40
35497;DHT22;21609;49.298;6.844;2022-10-31T15:21:31;21.30;60.40
35497;DHT22;21609;49.298;6.844;2022-10-31T15:24:00;21.30;60.40
35497;DHT22;21609;49.298;6.844;2022-10-31T15:26:31;21.30;60.40
35497;DHT22;21609;49.298;6.844;2022-10-31T15:29:02;21.30;60.40
35497;DHT22;21609;49.298;6.844;2022-10-31T15:31:29;21.20;60.30
35497;DHT22;21609;49.298;6.844;2022-10-31T15:34:00;21.30;60.40
35497;DHT22;21609;49.298;6.844;2022-10-31T15:36:27;21.20;60.40
35497;DHT22;21609;49.298;6.844;2022-10-31T15:38:55;21.30;60.40
35497;DHT22;21609;49.298;6.844;2022-10-31T15:44:14;21.20;60.50
35497;DHT22;21609;49.298;6.844;2022-10-31T15:46:40;21.20;60.50
35497;DHT22;21609;49.298;6.844;2022-10-31T15:49:21;21.20;60.50
35497;DHT22;21609;49.298;6.844;2022-10-31T15:51:49;21.10;60.50
35497;DHT22;21609;49.298;6.844;2022-10-31T15:54:15;21.20;60.60
35497;DHT22;21609;49.298;6.844;2022-10-31T15:56:43;21.10;60.60
35497;DHT22;21609;49.298;6.844;2022-10-31T15:59:24;21.10;60.70
35497;DHT22;21609;49.298;6.844;2022-10-31T16:02:02;21.10;60.70
35497;DHT22;21609;49.298;6.844;2022-10-31T16:04:29;21.10;60.90
35497;DHT22;21609;49.298;6.844;2022-10-31T16:07:15;21.00;60.80
35497;DHT22;21609;49.298;6.844;2022-10-31T16:12:20;21.00;60.80
35497;DHT22;21609;49.298;6.844;2022-10-31T16:14:46;21.00;61.00
35497;DHT22;21609;49.298;6.844;2022-10-31T16:17:18;21.00;61.10
35497;DHT22;21609;49.298;6.844;2022-10-31T16:22:23;20.90;61.10
35497;DHT22;21609;49.298;6.844;2022-10-31T16:27:55;20.80;61.10
35497;DHT22;21609;49.298;6.844;2022-10-31T16:30:35;20.80;61.20
35497;DHT22;21609;49.298;6.844;2022-10-31T16:33:02;20.80;61.20
35497;DHT22;21609;49.298;6.844;2022-10-31T16:35:36;20.80;61.30
35497;DHT22;21609;49.298;6.844;2022-10-31T16:38:03;20.80;61.30
35497;DHT22;21609;49.298;6.844;2022-10-31T16:40:29;20.70;61.30
35497;DHT22;21609;49.298;6.844;2022-10-31T16:42:57;20.70;61.30
35497;DHT22;21609;49.298;6.844;2022-10-31T16:45:26;20.70;61.30
35497;DHT22;21609;49.298;6.844;2022-10-31T16:47:52;20.70;61.40
35497;DHT22;21609;49.298;6.844;2022-10-31T16:50:25;20.70;61.30
35497;DHT22;21609;49.298;6.844;2022-10-31T16:52:52;20.70;61.40
35497;DHT22;21609;49.298;6.844;2022-10-31T16:55:19;20.70;61.40
35497;DHT22;21609;49.298;6.844;2022-10-31T16:57:51;20.70;61.50
35497;DHT22;21609;49.298;6.844;2022-10-31T17:00:23;20.70;61.50
35497;DHT22;21609;49.298;6.844;2022-10-31T17:02:52;20.60;61.40
35497;DHT22;21609;49.298;6.844;2022-10-31T17:05:20;20.60;61.50
35497;DHT22;21609;49.298;6.844;2022-10-31T17:07:46;20.60;61.50
35497;DHT22;21609;49.298;6.844;2022-10-31T17:10:13;20.60;61.40
35497;DHT22;21609;49.298;6.844;2022-10-31T17:12:44;20.60;61.50
35497;DHT22;21609;49.298;6.844;2022-10-31T17:15:22;20.60;61.50
35497;DHT22;21609;49.298;6.844;2022-10-31T17:17:48;20.60;61.50
35497;DHT22;21609;49.298;6.844;2022-10-31T17:20:21;20.60;61.60
35497;DHT22;21609;49.298;6.844;2022-10-31T17:22:46;20.60;61.70
35497;DHT22;21609;49.298;6.844;2022-10-31T17:25:15;20.60;61.90
35497;DHT22;21609;49.298;6.844;2022-10-31T17:27:41;20.60;61.90
35497;DHT22;21609;49.298;6.844;2022-10-31T17:30:08;20.50;61.90
35497;DHT22;21609;49.298;6.844;2022-10-31T17:32:35;20.50;61.90
35497;DHT22;21609;49.298;6.844;2022-10-31T17:35:01;20.60;61.90
35497;DHT22;21609;49.298;6.844;2022-10-31T17:37:27;20.60;61.90
35497;DHT22;21609;49.298;6.844;2022-10-31T17:39:53;20.50;61.90
35497;DHT22;21609;49.298;6.844;2022-10-31T17:42:18;20.60;62.00
35497;DHT22;21609;49.298;6.844;2022-10-31T17:44:44;20.60;61.90
35497;DHT22;21609;49.298;6.844;2022-10-31T17:47:09;20.60;61.90
35497;DHT22;21609;49.298;6.844;2022-10-31T17:49:35;20.50;61.90
35497;DHT22;21609;49.298;6.844;2022-10-31T17:52:00;20.60;61.90
35497;DHT22;21609;49.298;6.844;2022-10-31T17:54:26;20.50;61.90
35497;DHT22;21609;49.298;6.844;2022-10-31T17:56:52;20.50;61.90
35497;DHT22;21609;49.298;6.844;2022-10-31T17:59:18;20.50;61.80